Time;durP1;ratioP1;P1;durP2;ratioP2;P2;SDS_P1;SDS_P2;PMS_P1;PMS_P2;Temp;Humidity;BMP_temperature;BMP_pressure;BME280_temperature;BME280_humidity;BME280_pressure;Samples;Min_cycle;Max_cycle;Signal;HPM_P1;HPM_P2
2024/01/22 00:01:41;;;;;;;11.52;8.18;;;6.80;99.90;;;;;;6098718;23;20088;-76
2024/01/22 00:04:07;;;;;;;9.82;7.35;;;6.90;99.90;;;;;;6098050;23;20006;-76
2024/01/22 00:06:36;;;;;;;9.77;7.18;;;6.90;99.90;;;;;;6098426;23;20021;-76
2024/01/22 00:09:02;;;;;;;9.68;7.47;;;6.90;99.90;;;;;;6098486;23;20149;-76
2024/01/22 00:11:28;;;;;;;8.38;7.20;;;7.00;99.90;;;;;;6099079;23;20014;-75
2024/01/22 00:13:57;;;;;;;9.90;7.28;;;7.00;99.90;;;;;;6098407;23;20053;-75
2024/01/22 00:16:23;;;;;;;11.18;8.02;;;7.00;99.90;;;;;;6098042;23;20098;-75
2024/01/22 00:18:49;;;;;;;9.02;7.75;;;7.00;99.90;;;;;;6097891;23;20013;-76
2024/01/22 00:21:16;;;;;;;9.88;7.45;;;7.10;99.90;;;;;;6098893;23;20010;-76
2024/01/22 00:23:42;;;;;;;11.10;7.65;;;7.10;99.90;;;;;;6098542;23;20048;-76
2024/01/22 00:26:12;;;;;;;11.63;7.90;;;7.10;99.90;;;;;;6074797;23;20017;-76
2024/01/22 00:28:41;;;;;;;10.32;7.72;;;7.00;99.90;;;;;;6074794;23;20014;-76
2024/01/22 00:31:07;;;;;;;9.95;7.57;;;7.00;99.90;;;;;;6074661;23;20014;-76
2024/01/22 00:33:33;;;;;;;10.88;8.13;;;7.00;99.90;;;;;;6099093;23;20024;-76
2024/01/22 00:35:58;;;;;;;10.05;7.57;;;7.00;99.90;;;;;;6076034;23;20014;-76
2024/01/22 00:38:24;;;;;;;9.57;7.25;;;7.00;99.90;;;;;;6075972;23;20408;-76
2024/01/22 00:40:50;;;;;;;9.63;7.55;;;7.10;99.90;;;;;;6075998;23;20417;-76
2024/01/22 00:43:15;;;;;;;9.57;6.93;;;7.10;99.90;;;;;;6075604;23;20098;-76
2024/01/22 00:45:41;;;;;;;8.80;6.70;;;7.10;99.90;;;;;;6076051;23;20014;-76
2024/01/22 00:48:07;;;;;;;8.57;6.65;;;7.20;99.90;;;;;;6076129;23;20018;-76
2024/01/22 00:50:33;;;;;;;10.25;6.80;;;7.20;99.90;;;;;;6076445;23;20100;-76
2024/01/22 00:52:59;;;;;;;8.98;6.50;;;7.20;99.90;;;;;;6075863;23;20053;-76
2024/01/22 00:55:25;;;;;;;7.25;6.28;;;7.30;99.90;;;;;;6075556;23;20017;-76
2024/01/22 00:57:50;;;;;;;7.97;6.35;;;7.40;99.90;;;;;;6075505;23;20077;-76
2024/01/22 01:00:16;;;;;;;9.77;6.95;;;7.50;99.90;;;;;;6076288;23;20014;-76
2024/01/22 01:02:42;;;;;;;8.30;5.95;;;7.50;99.90;;;;;;6100025;23;20021;-76
2024/01/22 01:05:08;;;;;;;9.10;6.25;;;7.50;99.90;;;;;;6076611;23;20010;-76
2024/01/22 01:07:35;;;;;;;7.82;6.00;;;7.60;99.90;;;;;;6075813;23;20021;-76
2024/01/22 01:10:01;;;;;;;8.18;5.88;;;7.60;99.90;;;;;;6076137;23;20096;-76
2024/01/22 01:12:26;;;;;;;8.23;6.00;;;7.70;99.90;;;;;;6076041;23;20386;-76
2024/01/22 01:14:52;;;;;;;7.93;5.43;;;7.80;99.90;;;;;;6076300;23;20104;-76
2024/01/22 01:17:18;;;;;;;7.70;5.72;;;7.80;99.90;;;;;;6075720;23;20021;-76
2024/01/22 01:19:44;;;;;;;7.72;6.00;;;7.90;99.90;;;;;;6076774;23;20116;-76
2024/01/22 01:22:10;;;;;;;6.57;5.53;;;7.90;99.90;;;;;;6077824;23;20488;-77
2024/01/22 01:24:37;;;;;;;7.63;6.35;;;8.00;99.90;;;;;;6110279;23;20037;-76
2024/01/22 01:27:03;;;;;;;8.15;6.20;;;7.90;99.90;;;;;;6102618;23;20386;-76
2024/01/22 01:29:29;;;;;;;9.13;6.13;;;7.90;99.90;;;;;;6102351;23;20020;-76
2024/01/22 01:31:55;;;;;;;7.88;6.43;;;7.80;99.90;;;;;;6101493;23;20024;-76
2024/01/22 01:34:21;;;;;;;7.65;6.50;;;7.80;99.90;;;;;;6100965;23;20014;-76
2024/01/22 01:36:47;;;;;;;9.82;6.90;;;7.80;99.90;;;;;;6100922;23;20018;-77
2024/01/22 01:39:13;;;;;;;9.23;6.53;;;7.70;99.90;;;;;;6101282;23;20022;-76
2024/01/22 01:41:39;;;;;;;7.63;6.82;;;7.70;99.90;;;;;;6101288;23;20041;-76
2024/01/22 01:44:04;;;;;;;9.68;6.88;;;7.70;99.90;;;;;;6101142;23;20100;-77
2024/01/22 01:46:30;;;;;;;9.40;7.35;;;7.70;99.90;;;;;;6100780;23;20084;-76
2024/01/22 01:48:56;;;;;;;7.85;7.00;;;7.70;99.90;;;;;;6102093;23;20052;-77
2024/01/22 01:51:23;;;;;;;10.95;7.45;;;7.80;99.90;;;;;;6101422;23;20025;-77
2024/01/22 01:53:50;;;;;;;10.10;8.05;;;7.70;99.90;;;;;;6101278;23;20105;-77
2024/01/22 01:56:17;;;;;;;11.52;8.23;;;7.70;99.90;;;;;;6101953;23;20025;-76
2024/01/22 01:58:43;;;;;;;9.75;8.13;;;7.60;99.90;;;;;;6101603;23;20049;-77
2024/01/22 02:01:09;;;;;;;12.88;8.88;;;7.60;99.90;;;;;;6101047;23;20025;-77
2024/01/22 02:03:34;;;;;;;11.57;9.25;;;7.60;99.90;;;;;;6101258;23;20387;-77
2024/01/22 02:06:01;;;;;;;12.85;9.00;;;7.60;99.90;;;;;;6101437;23;20354;-77
2024/01/22 02:08:26;;;;;;;12.50;9.40;;;7.60;99.90;;;;;;6101804;23;20093;-77
2024/01/22 02:10:52;;;;;;;12.05;9.43;;;7.60;99.90;;;;;;6100852;23;20073;-76
2024/01/22 02:13:18;;;;;;;14.95;9.93;;;7.60;99.90;;;;;;6101815;23;20036;-76
2024/01/22 02:15:43;;;;;;;12.95;9.50;;;7.60;99.90;;;;;;6102113;23;20014;-76
2024/01/22 02:18:12;;;;;;;12.93;10.25;;;7.60;99.90;;;;;;6102165;23;20014;-76
2024/01/22 02:20:37;;;;;;;12.25;9.52;;;7.60;99.90;;;;;;6102873;23;20145;-77
2024/01/22 02:23:04;;;;;;;10.95;9.65;;;7.60;99.90;;;;;;6101563;23;20050;-76
2024/01/22 02:25:30;;;;;;;11.85;9.20;;;7.60;99.90;;;;;;6103059;23;20006;-77
2024/01/22 02:27:57;;;;;;;12.30;9.82;;;7.60;99.90;;;;;;6106610;23;20025;-77
2024/01/22 02:30:28;;;;;;;10.35;8.65;;;7.60;99.90;;;;;;6102916;23;20356;-77
2024/01/22 02:32:53;;;;;;;12.30;8.80;;;7.60;99.90;;;;;;6126453;23;20014;-77
2024/01/22 02:35:22;;;;;;;13.45;9.50;;;7.60;99.90;;;;;;6102985;23;20017;-77
2024/01/22 02:37:48;;;;;;;11.88;8.88;;;7.60;99.90;;;;;;6102335;23;20473;-76
2024/01/22 02:40:14;;;;;;;11.43;8.40;;;7.70;99.90;;;;;;6102740;23;20014;-77
2024/01/22 02:42:40;;;;;;;11.70;8.35;;;7.70;99.90;;;;;;6102643;23;20126;-77
2024/01/22 02:45:07;;;;;;;11.18;9.32;;;7.70;99.90;;;;;;6102863;23;20089;-76
2024/01/22 02:47:33;;;;;;;10.98;8.82;;;7.70;99.90;;;;;;6102021;23;20021;-76
2024/01/22 02:50:03;;;;;;;11.57;9.20;;;7.70;99.90;;;;;;6102760;23;20010;-76
2024/01/22 02:52:29;;;;;;;9.68;8.52;;;7.80;99.90;;;;;;6101539;23;20014;-78
2024/01/22 02:54:54;;;;;;;9.57;8.30;;;7.80;99.90;;;;;;6101536;23;20010;-76
2024/01/22 02:57:23;;;;;;;10.85;9.27;;;7.80;99.90;;;;;;6102751;23;20291;-76
2024/01/22 02:59:48;;;;;;;12.45;8.30;;;7.80;99.90;;;;;;6102749;23;20406;-77
2024/01/22 03:02:14;;;;;;;9.93;8.85;;;7.80;99.90;;;;;;6102523;23;20454;-77
2024/01/22 03:04:40;;;;;;;11.07;7.95;;;7.80;99.90;;;;;;6102925;23;20014;-77
2024/01/22 03:07:06;;;;;;;11.60;8.43;;;7.90;99.90;;;;;;6102275;23;20013;-77
2024/01/22 03:09:32;;;;;;;10.90;8.75;;;7.80;99.90;;;;;;6102402;23;20048;-77
2024/01/22 03:12:06;;;;;;;11.00;8.75;;;7.80;99.90;;;;;;6102210;23;20021;-78
2024/01/22 03:14:34;;;;;;;9.18;8.20;;;7.90;99.90;;;;;;6101718;23;20346;-77
2024/01/22 03:17:03;;;;;;;10.32;8.63;;;7.90;99.90;;;;;;6101662;23;20018;-77
2024/01/22 03:19:32;;;;;;;9.05;7.78;;;7.90;99.90;;;;;;6101365;23;20018;-78
2024/01/22 03:22:00;;;;;;;14.65;9.75;;;7.90;99.90;;;;;;6102187;23;20052;-78
2024/01/22 03:24:27;;;;;;;10.57;9.02;;;8.00;99.90;;;;;;6105747;23;20096;-78
2024/01/22 03:26:53;;;;;;;13.18;9.43;;;8.00;99.90;;;;;;6128647;23;20029;-78
2024/01/22 03:29:18;;;;;;;9.45;8.52;;;8.00;99.90;;;;;;6128721;23;20401;-79
2024/01/22 03:31:44;;;;;;;11.48;8.30;;;8.00;99.90;;;;;;6128064;23;20397;-78
2024/01/22 03:34:09;;;;;;;9.88;8.70;;;7.90;99.90;;;;;;6124118;23;20021;-79
2024/01/22 03:36:36;;;;;;;9.43;8.52;;;8.00;99.90;;;;;;6099477;23;20018;-78
2024/01/22 03:39:01;;;;;;;12.60;9.18;;;8.00;99.90;;;;;;6075065;23;20347;-78
2024/01/22 03:41:27;;;;;;;11.55;10.30;;;8.00;99.90;;;;;;6099297;23;20025;-78
2024/01/22 03:43:53;;;;;;;11.93;9.80;;;8.00;99.90;;;;;;6098765;23;20010;-79
2024/01/22 03:46:18;;;;;;;9.90;8.90;;;8.00;99.90;;;;;;6098660;23;20033;-78
2024/01/22 03:48:44;;;;;;;10.95;9.93;;;8.00;99.90;;;;;;6098808;23;20366;-76
2024/01/22 03:51:10;;;;;;;10.63;9.52;;;8.10;99.90;;;;;;6074891;23;20032;-76
2024/01/22 03:53:35;;;;;;;11.88;10.25;;;8.10;99.90;;;;;;6098608;23;20037;-76
2024/01/22 03:56:05;;;;;;;10.73;8.90;;;8.10;99.90;;;;;;6098685;23;20018;-76
2024/01/22 03:58:32;;;;;;;12.35;10.27;;;8.10;99.90;;;;;;6075000;23;20018;-76
2024/01/22 04:00:58;;;;;;;12.95;10.15;;;8.20;99.90;;;;;;6074527;23;20324;-76
2024/01/22 04:03:24;;;;;;;10.13;9.18;;;8.10;99.90;;;;;;6099080;23;20017;-76
2024/01/22 04:05:49;;;;;;;11.20;10.07;;;8.20;99.90;;;;;;6098538;23;20010;-77
2024/01/22 04:08:15;;;;;;;12.43;11.13;;;8.20;99.90;;;;;;6098905;23;20529;-76
2024/01/22 04:10:40;;;;;;;11.38;10.18;;;8.20;99.90;;;;;;6074806;23;20014;-76
2024/01/22 04:13:06;;;;;;;12.23;10.93;;;8.20;99.90;;;;;;6074590;23;20025;-76
2024/01/22 04:15:32;;;;;;;12.55;10.90;;;8.20;99.90;;;;;;6074910;23;20068;-76
2024/01/22 04:17:58;;;;;;;13.00;11.05;;;8.20;99.90;;;;;;6074250;23;20347;-76
2024/01/22 04:20:23;;;;;;;10.82;9.82;;;8.30;99.90;;;;;;6098813;23;20014;-76
2024/01/22 04:22:51;;;;;;;10.77;9.55;;;8.30;99.90;;;;;;6074815;23;20041;-75
2024/01/22 04:25:17;;;;;;;12.77;11.50;;;8.30;99.90;;;;;;6085611;23;20053;-76
2024/01/22 04:27:42;;;;;;;11.68;10.48;;;8.30;99.90;;;;;;6098780;23;20021;-76
2024/01/22 04:30:08;;;;;;;12.15;10.95;;;8.30;99.90;;;;;;6123225;23;20454;-76
2024/01/22 04:32:34;;;;;;;11.50;9.63;;;8.30;99.90;;;;;;6098512;23;20021;-76
2024/01/22 04:35:00;;;;;;;10.88;9.70;;;8.30;99.90;;;;;;6098774;23;20446;-76
2024/01/22 04:37:26;;;;;;;10.48;8.75;;;8.40;99.90;;;;;;6122807;23;20018;-75
2024/01/22 04:39:52;;;;;;;10.05;9.05;;;8.40;99.90;;;;;;6122977;23;20017;-75
2024/01/22 04:42:20;;;;;;;10.43;9.32;;;8.40;99.90;;;;;;6123061;23;20045;-76
2024/01/22 04:44:46;;;;;;;10.05;9.05;;;8.40;99.90;;;;;;6098104;23;20010;-75
2024/01/22 04:47:11;;;;;;;9.63;8.70;;;8.40;99.90;;;;;;6122778;23;20093;-76
2024/01/22 04:49:37;;;;;;;9.30;8.43;;;8.40;99.90;;;;;;6123058;23;20042;-76
2024/01/22 04:52:03;;;;;;;9.43;8.45;;;8.50;99.90;;;;;;6122968;23;20068;-78
2024/01/22 04:54:28;;;;;;;10.93;9.82;;;8.50;99.90;;;;;;6122577;23;20052;-78
2024/01/22 04:56:54;;;;;;;9.95;8.95;;;8.50;99.90;;;;;;6122766;23;20018;-78
2024/01/22 04:59:20;;;;;;;9.40;8.50;;;8.50;99.90;;;;;;6122906;23;20014;-78
2024/01/22 05:01:46;;;;;;;8.57;7.78;;;8.50;99.90;;;;;;6122828;23;20097;-78
2024/01/22 05:04:11;;;;;;;7.88;7.07;;;8.60;99.90;;;;;;6122574;23;20014;-78
2024/01/22 05:06:37;;;;;;;9.52;7.60;;;8.70;99.90;;;;;;6098413;23;20018;-78
2024/01/22 05:09:04;;;;;;;7.18;6.47;;;8.70;99.90;;;;;;6098677;23;20064;-76
2024/01/22 05:11:30;;;;;;;6.15;5.63;;;8.80;99.90;;;;;;6098221;23;20018;-75
2024/01/22 05:13:56;;;;;;;5.88;5.20;;;8.90;99.90;;;;;;6122389;23;20354;-76
2024/01/22 05:16:22;;;;;;;6.88;6.18;;;8.90;99.90;;;;;;6122722;23;20048;-76
2024/01/22 05:18:50;;;;;;;6.60;5.97;;;9.00;99.90;;;;;;6122911;23;20353;-76
2024/01/22 05:21:16;;;;;;;6.55;5.13;;;9.00;99.90;;;;;;6098710;23;20021;-76
2024/01/22 05:23:42;;;;;;;4.45;3.85;;;9.10;99.90;;;;;;6098272;23;20006;-76
2024/01/22 05:26:08;;;;;;;4.50;4.10;;;9.20;99.90;;;;;;6122269;23;20093;-76
2024/01/22 05:28:34;;;;;;;3.90;3.50;;;9.20;99.90;;;;;;6122925;23;20021;-75
2024/01/22 05:31:01;;;;;;;4.72;3.47;;;9.20;99.90;;;;;;6098533;23;20020;-75
2024/01/22 05:33:27;;;;;;;5.38;3.60;;;9.30;99.90;;;;;;6122699;23;20480;-76
2024/01/22 05:35:53;;;;;;;4.35;3.00;;;9.40;99.90;;;;;;6098444;23;20454;-76
2024/01/22 05:38:19;;;;;;;2.90;2.10;;;9.40;99.90;;;;;;6122465;23;20113;-76
2024/01/22 05:40:45;;;;;;;3.20;2.38;;;9.50;99.90;;;;;;6122705;23;20454;-76
2024/01/22 05:43:10;;;;;;;3.22;2.25;;;9.60;99.90;;;;;;6122560;23;20014;-76
2024/01/22 05:45:36;;;;;;;3.22;1.77;;;9.70;99.90;;;;;;6098374;23;20011;-75
2024/01/22 05:48:02;;;;;;;3.85;2.25;;;9.70;99.90;;;;;;6098255;23;20040;-76
2024/01/22 05:50:27;;;;;;;4.22;1.63;;;9.70;99.90;;;;;;6122640;23;20013;-76
2024/01/22 05:52:53;;;;;;;5.07;1.83;;;9.80;99.90;;;;;;6121987;23;20096;-75
2024/01/22 05:55:19;;;;;;;4.10;1.95;;;9.80;99.90;;;;;;6122438;23;20342;-76
2024/01/22 05:57:44;;;;;;;4.18;1.98;;;9.90;99.90;;;;;;6122528;23;20018;-76
2024/01/22 06:00:13;;;;;;;4.53;1.90;;;9.90;99.90;;;;;;6122776;23;20016;-76
2024/01/22 06:02:42;;;;;;;4.47;2.08;;;9.90;99.90;;;;;;6098237;23;20466;-76
2024/01/22 06:05:09;;;;;;;3.28;1.70;;;9.90;99.90;;;;;;6122467;23;20085;-75
2024/01/22 06:07:36;;;;;;;6.88;1.95;;;9.90;99.90;;;;;;6123073;23;20013;-75
2024/01/22 06:10:02;;;;;;;5.85;2.20;;;9.90;99.90;;;;;;6123989;23;20010;-76
2024/01/22 06:12:27;;;;;;;3.72;1.83;;;9.90;99.90;;;;;;6124496;23;20013;-76
2024/01/22 06:14:53;;;;;;;4.25;1.70;;;9.90;99.90;;;;;;6124075;23;20010;-75
2024/01/22 06:17:19;;;;;;;4.63;2.08;;;9.90;99.90;;;;;;6123891;23;20014;-75
2024/01/22 06:19:44;;;;;;;4.05;2.22;;;10.00;99.90;;;;;;6123587;23;20018;-76
2024/01/22 06:22:12;;;;;;;3.22;2.10;;;10.00;99.90;;;;;;6124248;23;20014;-76
2024/01/22 06:24:38;;;;;;;6.32;2.55;;;10.00;99.90;;;;;;6099063;23;20021;-81
2024/01/22 06:27:04;;;;;;;4.68;2.63;;;10.00;99.90;;;;;;6099568;23;20006;-78
2024/01/22 06:29:30;;;;;;;4.43;2.47;;;10.00;99.90;;;;;;6123525;23;20117;-78
2024/01/22 06:31:55;;;;;;;5.25;3.20;;;10.00;99.90;;;;;;6099536;23;20018;-79
2024/01/22 06:34:21;;;;;;;7.28;3.25;;;9.90;99.90;;;;;;6099321;23;20017;-79
2024/01/22 06:36:46;;;;;;;7.07;4.07;;;10.00;99.90;;;;;;6124331;23;20052;-77
2024/01/22 06:39:12;;;;;;;9.55;4.90;;;10.00;99.90;;;;;;6124047;23;20017;-78
2024/01/22 06:41:37;;;;;;;11.50;4.38;;;10.00;99.90;;;;;;6099641;23;20010;-80
2024/01/22 06:44:04;;;;;;;11.82;4.90;;;10.00;99.90;;;;;;6123867;23;20014;-79
2024/01/22 06:46:30;;;;;;;12.05;4.05;;;10.00;99.90;;;;;;6122967;23;20014;-79
2024/01/22 06:48:55;;;;;;;14.90;4.85;;;9.90;99.90;;;;;;6098815;23;20025;-78
2024/01/22 06:51:22;;;;;;;13.55;3.92;;;9.90;99.90;;;;;;6098713;23;20017;-78
2024/01/22 06:53:48;;;;;;;18.92;4.15;;;9.90;99.90;;;;;;6098400;23;20045;-79
2024/01/22 06:56:13;;;;;;;15.30;4.05;;;9.90;99.90;;;;;;6099468;23;20010;-78
2024/01/22 06:58:39;;;;;;;11.90;4.05;;;9.80;99.90;;;;;;6124064;23;20238;-78
2024/01/22 07:01:05;;;;;;;16.88;4.43;;;9.80;99.90;;;;;;6098750;23;20088;-78
2024/01/22 07:03:30;;;;;;;15.23;3.90;;;9.80;99.90;;;;;;6123246;23;20010;-79
2024/01/22 07:05:56;;;;;;;18.42;3.95;;;9.90;99.90;;;;;;6123769;23;20073;-79
2024/01/22 07:08:22;;;;;;;14.15;3.92;;;9.90;99.90;;;;;;6098505;23;20020;-78
2024/01/22 07:10:48;;;;;;;18.13;4.40;;;9.90;99.90;;;;;;6099440;23;20021;-81
2024/01/22 07:13:15;;;;;;;17.88;4.70;;;9.90;99.90;;;;;;6099287;23;20512;-79
2024/01/22 07:15:40;;;;;;;16.98;4.43;;;9.90;99.90;;;;;;6099133;23;20021;-80
2024/01/22 07:18:06;;;;;;;16.75;4.63;;;9.90;99.90;;;;;;6099410;23;20351;-80
2024/01/22 07:20:33;;;;;;;18.40;4.45;;;9.90;99.90;;;;;;6123626;23;20005;-80
2024/01/22 07:22:59;;;;;;;20.25;5.18;;;9.90;99.90;;;;;;6099201;23;20048;-79
2024/01/22 07:25:24;;;;;;;20.17;5.20;;;9.90;99.90;;;;;;6098905;23;20009;-80
2024/01/22 07:27:51;;;;;;;21.58;5.45;;;9.90;99.90;;;;;;6099765;23;20021;-80
2024/01/22 07:30:16;;;;;;;21.08;4.90;;;9.90;99.90;;;;;;6098587;23;20014;-81
2024/01/22 07:32:43;;;;;;;17.80;4.75;;;9.90;99.90;;;;;;6100075;23;20097;-80
2024/01/22 07:35:11;;;;;;;21.35;4.95;;;9.90;99.90;;;;;;6098772;23;20022;-82
2024/01/22 07:37:38;;;;;;;20.73;4.82;;;9.90;99.90;;;;;;6123735;23;20056;-81
2024/01/22 07:40:05;;;;;;;24.40;4.82;;;10.00;99.90;;;;;;6099672;23;20021;-82
2024/01/22 07:42:32;;;;;;;20.90;5.15;;;10.00;99.90;;;;;;6099486;23;20021;-80
2024/01/22 07:44:58;;;;;;;19.33;5.50;;;9.90;99.90;;;;;;6099180;23;20138;-81
2024/01/22 07:47:24;;;;;;;20.95;5.93;;;9.90;99.90;;;;;;6099444;23;20049;-82
2024/01/22 07:49:49;;;;;;;23.02;5.20;;;9.90;99.90;;;;;;6124153;23;20014;-82
2024/01/22 07:52:15;;;;;;;18.38;5.55;;;9.90;99.90;;;;;;6099449;23;20016;-80
2024/01/22 07:54:41;;;;;;;18.55;4.95;;;9.90;99.90;;;;;;6099285;23;20018;-81
2024/01/22 07:57:10;;;;;;;19.48;5.57;;;9.90;99.90;;;;;;6099401;23;20028;-82
2024/01/22 07:59:37;;;;;;;21.20;5.90;;;10.00;99.90;;;;;;6099507;23;20512;-81
2024/01/22 08:02:04;;;;;;;20.70;5.78;;;10.00;99.90;;;;;;6123820;23;20014;-82
2024/01/22 08:04:30;;;;;;;19.17;5.95;;;9.90;99.90;;;;;;6123460;23;20085;-81
2024/01/22 08:06:56;;;;;;;21.77;6.72;;;9.90;99.90;;;;;;6124000;23;20010;-81
2024/01/22 08:09:22;;;;;;;19.30;6.68;;;9.90;99.90;;;;;;6123938;23;20018;-80
2024/01/22 08:11:48;;;;;;;21.15;7.10;;;9.90;99.90;;;;;;6099468;23;20020;-80
2024/01/22 08:14:14;;;;;;;19.88;6.25;;;9.90;99.90;;;;;;6099213;23;20450;-81
2024/01/22 08:16:39;;;;;;;24.35;7.15;;;9.90;99.90;;;;;;6099182;23;20069;-80
2024/01/22 08:19:05;;;;;;;24.23;7.00;;;9.90;99.90;;;;;;6099554;23;20338;-81
2024/01/22 08:21:31;;;;;;;24.27;7.68;;;9.90;99.90;;;;;;6123446;23;20006;-79
2024/01/22 08:23:57;;;;;;;19.60;7.13;;;9.90;99.90;;;;;;6098620;23;20013;-80
2024/01/22 08:26:22;;;;;;;35.63;9.93;;;9.90;99.90;;;;;;6101236;23;20016;-80
2024/01/22 08:28:48;;;;;;;30.13;9.38;;;9.90;99.90;;;;;;6099017;23;20045;-81
2024/01/22 08:31:13;;;;;;;33.35;9.95;;;9.90;99.90;;;;;;6098872;23;20017;-80
2024/01/22 08:33:39;;;;;;;32.58;9.93;;;9.90;99.90;;;;;;6074890;23;20018;-80
2024/01/22 08:36:05;;;;;;;45.80;13.88;;;9.90;99.90;;;;;;6099106;23;20014;-81
2024/01/22 08:38:30;;;;;;;34.22;9.93;;;9.90;99.90;;;;;;6074922;23;20017;-81
2024/01/22 08:40:56;;;;;;;37.38;11.13;;;9.80;99.90;;;;;;6075076;23;20097;-81
2024/01/22 08:43:22;;;;;;;37.13;10.13;;;9.80;99.90;;;;;;6098946;23;20009;-80
2024/01/22 08:45:47;;;;;;;38.70;11.70;;;9.80;99.90;;;;;;6098869;23;20017;-81
2024/01/22 08:48:13;;;;;;;41.20;10.75;;;9.70;99.90;;;;;;6075033;23;20447;-80
2024/01/22 08:50:39;;;;;;;35.67;10.68;;;9.70;99.90;;;;;;6099119;23;20096;-81
2024/01/22 08:53:04;;;;;;;44.45;11.43;;;9.70;99.90;;;;;;6098815;23;20014;-81
2024/01/22 08:55:30;;;;;;;37.63;10.85;;;9.60;99.90;;;;;;6098907;23;20021;-80
2024/01/22 08:57:55;;;;;;;41.67;9.68;;;9.60;99.90;;;;;;6074927;23;20014;-80
2024/01/22 09:00:22;;;;;;;39.83;9.98;;;9.60;99.90;;;;;;6099066;23;20466;-80
2024/01/22 09:02:47;;;;;;;36.28;9.07;;;9.60;99.90;;;;;;6098663;23;20098;-81
2024/01/22 09:05:13;;;;;;;44.65;10.27;;;9.50;99.90;;;;;;6098573;23;20042;-80
2024/01/22 09:07:39;;;;;;;44.50;10.10;;;9.50;99.90;;;;;;6074850;23;20112;-80
2024/01/22 09:10:07;;;;;;;44.33;9.65;;;9.50;99.90;;;;;;6074585;23;20017;-80
2024/01/22 09:12:36;;;;;;;61.60;12.10;;;9.50;99.90;;;;;;6098794;23;20013;-80
2024/01/22 09:15:05;;;;;;;52.95;11.93;;;9.60;99.90;;;;;;6074575;23;20010;-82
2024/01/22 09:17:31;;;;;;;51.20;10.82;;;9.50;99.90;;;;;;6098875;23;20061;-81
2024/01/22 09:19:57;;;;;;;59.33;11.65;;;9.50;99.90;;;;;;6098820;23;20382;-81
2024/01/22 09:22:23;;;;;;;56.08;11.50;;;9.50;99.90;;;;;;6098707;23;20014;-80
2024/01/22 09:24:50;;;;;;;60.22;12.05;;;9.50;99.90;;;;;;6086231;23;20513;-78
2024/01/22 09:27:16;;;;;;;49.33;10.68;;;9.50;99.90;;;;;;6152507;23;20021;-79
2024/01/22 09:29:42;;;;;;;63.08;11.95;;;9.40;99.90;;;;;;6127982;23;20017;-79
2024/01/22 09:32:10;;;;;;;59.25;11.15;;;9.40;99.90;;;;;;6128047;23;20036;-79
2024/01/22 09:34:37;;;;;;;56.45;12.75;;;9.40;99.90;;;;;;6123402;23;20017;-78
2024/01/22 09:37:03;;;;;;;57.83;11.57;;;9.40;99.90;;;;;;6123093;23;20057;-79
2024/01/22 09:39:30;;;;;;;57.95;12.65;;;9.40;99.90;;;;;;6122903;23;20010;-79
2024/01/22 09:41:57;;;;;;;60.03;13.15;;;9.40;99.90;;;;;;6124306;23;20010;-79
2024/01/22 09:44:23;;;;;;;66.15;13.05;;;9.40;99.90;;;;;;6100133;23;20017;-79
2024/01/22 09:46:49;;;;;;;58.03;12.32;;;9.40;99.90;;;;;;6125575;23;20339;-81
2024/01/22 09:49:15;;;;;;;60.33;11.85;;;9.40;99.90;;;;;;6101343;23;20097;-82
2024/01/22 09:51:44;;;;;;;55.47;12.23;;;9.30;99.90;;;;;;6125437;23;20018;-82
2024/01/22 09:54:12;;;;;;;57.55;12.57;;;9.30;99.90;;;;;;6125351;23;20014;-82
2024/01/22 09:56:38;;;;;;;48.40;11.52;;;9.40;99.90;;;;;;6101244;23;20541;-81
2024/01/22 09:59:15;;;;;;;56.13;11.48;;;9.30;99.90;;;;;;6101165;23;20014;-81
2024/01/22 10:01:42;;;;;;;52.17;11.93;;;9.30;99.90;;;;;;6125669;23;20014;-82
2024/01/22 10:04:11;;;;;;;53.35;12.27;;;9.30;99.90;;;;;;6125106;23;20084;-82
2024/01/22 10:06:36;;;;;;;61.42;12.57;;;9.20;99.90;;;;;;6100935;23;20014;-82
2024/01/22 10:09:03;;;;;;;51.72;10.82;;;9.20;99.90;;;;;;6125936;23;20018;-81
2024/01/22 10:11:30;;;;;;;66.10;12.48;;;9.30;99.90;;;;;;6101165;23;20016;-81
2024/01/22 10:13:56;;;;;;;51.92;11.98;;;9.30;99.90;;;;;;6100517;23;20493;-82
2024/01/22 10:16:26;;;;;;;53.80;11.45;;;9.30;99.90;;;;;;6125372;23;20014;-81
2024/01/22 10:19:00;;;;;;;54.80;11.68;;;9.30;99.90;;;;;;6125200;23;20347;-81
2024/01/22 10:21:26;;;;;;;54.72;11.80;;;9.40;99.90;;;;;;6125681;23;20013;-82
2024/01/22 10:24:03;;;;;;;59.08;12.00;;;9.30;99.90;;;;;;6100828;23;20037;-81
2024/01/22 10:26:32;;;;;;;51.63;11.95;;;9.30;99.90;;;;;;6099103;23;20339;-82
2024/01/22 10:29:18;;;;;;;50.70;11.95;;;9.30;99.90;;;;;;6072364;23;20019;-81
2024/01/22 10:31:58;;;;;;;49.40;10.98;;;9.20;99.90;;;;;;6096280;23;20020;-82
2024/01/22 10:34:41;;;;;;;53.17;11.65;;;9.20;99.90;;;;;;6071913;23;20459;-82
2024/01/22 10:37:11;;;;;;;55.78;11.93;;;9.10;99.90;;;;;;6072689;23;20014;-82
2024/01/22 10:39:39;;;;;;;50.50;12.02;;;9.10;99.90;;;;;;6072988;23;20011;-81
2024/01/22 10:42:15;;;;;;;55.33;11.48;;;9.00;99.90;;;;;;6096668;23;20021;-81
2024/01/22 10:44:44;;;;;;;49.75;10.90;;;9.00;99.90;;;;;;6073026;23;20014;-82
2024/01/22 10:47:11;;;;;;;50.85;11.23;;;9.00;99.90;;;;;;6072713;23;20014;-82
2024/01/22 10:49:37;;;;;;;47.55;12.20;;;9.00;99.90;;;;;;6072604;23;20015;-81
2024/01/22 10:52:04;;;;;;;46.90;11.57;;;8.90;99.90;;;;;;6072734;23;20011;-82
2024/01/22 10:54:31;;;;;;;42.92;9.93;;;8.90;99.90;;;;;;6072643;23;20014;-82
2024/01/22 10:57:05;;;;;;;46.42;11.45;;;8.90;99.90;;;;;;6097061;23;20026;-82
2024/01/22 10:59:38;;;;;;;50.00;10.73;;;8.80;99.90;;;;;;6096908;23;20097;-81
2024/01/22 11:02:25;;;;;;;48.40;11.27;;;8.80;99.90;;;;;;6073227;23;20014;-82
2024/01/22 11:04:59;;;;;;;45.25;10.73;;;8.70;99.90;;;;;;6071802;23;20021;-81
2024/01/22 11:07:28;;;;;;;52.30;11.80;;;8.80;99.90;;;;;;6073288;23;20498;-82
2024/01/22 11:09:57;;;;;;;49.03;10.95;;;8.90;99.90;;;;;;6097474;23;20014;-81
2024/01/22 11:12:24;;;;;;;51.03;11.25;;;8.90;99.90;;;;;;6073886;23;20042;-82
2024/01/22 11:14:50;;;;;;;48.50;12.13;;;9.00;99.90;;;;;;6097245;23;20045;-82
2024/01/22 11:17:18;;;;;;;45.83;10.20;;;9.10;99.90;;;;;;6095267;23;20019;-82
2024/01/22 11:19:44;;;;;;;40.08;9.52;;;9.20;99.90;;;;;;6071193;23;20025;-82
2024/01/22 11:22:23;;;;;;;42.50;11.00;;;9.20;99.90;;;;;;6071739;23;20447;-82
2024/01/22 11:25:12;;;;;;;43.60;10.98;;;9.20;99.90;;;;;;6094924;23;20021;-82
2024/01/22 11:27:42;;;;;;;39.03;9.15;;;9.30;99.90;;;;;;6095578;23;20015;-82
2024/01/22 11:30:27;;;;;;;35.47;9.20;;;9.40;99.90;;;;;;6071570;23;20011;-81
2024/01/22 11:32:53;;;;;;;40.40;10.60;;;9.60;99.90;;;;;;6095547;23;20070;-82
2024/01/22 11:35:33;;;;;;;39.03;9.40;;;9.70;99.90;;;;;;6071331;23;20010;-82
2024/01/22 11:37:58;;;;;;;34.00;8.75;;;9.80;99.90;;;;;;6095523;23;20052;-82
2024/01/22 11:40:51;;;;;;;37.08;9.48;;;9.90;99.90;;;;;;6071708;23;20014;-82
2024/01/22 11:43:19;;;;;;;38.35;9.20;;;9.90;99.90;;;;;;6071920;23;20042;-82
2024/01/22 11:45:46;;;;;;;38.47;7.90;;;10.00;99.90;;;;;;6072216;23;20006;-82
2024/01/22 11:48:20;;;;;;;34.78;8.45;;;10.20;99.90;;;;;;6095589;23;20015;-82
2024/01/22 11:50:59;;;;;;;35.25;8.30;;;10.40;99.90;;;;;;6095646;23;20014;-82
2024/01/22 11:53:26;;;;;;;32.95;8.43;;;10.50;99.90;;;;;;6095496;23;20073;-82
2024/01/22 11:56:03;;;;;;;31.92;7.95;;;10.70;99.90;;;;;;6095948;23;20020;-82
2024/01/22 11:58:30;;;;;;;29.67;7.47;;;11.00;99.90;;;;;;6095743;23;20018;-82
2024/01/22 12:00:56;;;;;;;31.33;7.93;;;11.10;99.90;;;;;;6095945;23;20016;-83
2024/01/22 12:03:31;;;;;;;28.23;7.63;;;11.20;99.90;;;;;;6071670;23;20042;-82
2024/01/22 12:06:09;;;;;;;29.60;7.82;;;11.40;99.90;;;;;;6071895;23;20014;-82
2024/01/22 12:08:35;;;;;;;30.23;6.93;;;11.60;99.90;;;;;;6072572;23;20101;-82
2024/01/22 12:11:08;;;;;;;27.23;6.63;;;11.70;99.90;;;;;;6072196;23;20332;-82
2024/01/22 12:13:37;;;;;;;29.17;7.40;;;11.90;99.90;;;;;;6096154;23;20010;-82
2024/01/22 12:16:03;;;;;;;25.60;7.00;;;12.00;99.90;;;;;;6096364;23;20014;-82
2024/01/22 12:18:28;;;;;;;30.13;7.43;;;12.00;99.90;;;;;;6096112;23;20029;-82
2024/01/22 12:20:54;;;;;;;30.73;7.85;;;12.00;99.90;;;;;;6096830;23;20042;-82
2024/01/22 12:23:30;;;;;;;27.77;7.05;;;11.80;99.90;;;;;;6072236;23;20034;-82
2024/01/22 12:25:57;;;;;;;30.48;7.20;;;11.60;99.90;;;;;;6096380;23;20025;-82
2024/01/22 12:28:23;;;;;;;26.52;6.97;;;11.30;99.90;;;;;;6096197;23;20021;-82
2024/01/22 12:30:59;;;;;;;28.80;7.32;;;11.20;99.90;;;;;;6096973;23;20021;-82
2024/01/22 12:33:27;;;;;;;27.38;6.93;;;11.20;99.90;;;;;;6072946;23;20125;-82
2024/01/22 12:36:12;;;;;;;27.05;6.97;;;11.30;99.90;;;;;;6097386;23;20029;-82
2024/01/22 12:38:56;;;;;;;25.35;7.15;;;11.50;99.90;;;;;;6073260;23;20070;-82
2024/01/22 12:41:24;;;;;;;27.02;6.90;;;11.60;99.90;;;;;;6073684;23;20042;-82
2024/01/22 12:43:54;;;;;;;29.15;7.32;;;11.60;99.90;;;;;;6072783;23;20038;-82
2024/01/22 12:46:20;;;;;;;23.45;6.22;;;11.40;99.90;;;;;;6073184;23;20021;-82